createdAt,value
2023-04-20T00:01:24.035Z,54.18
2023-04-20T00:03:52.835Z,54.22
2023-04-20T00:06:22.084Z,54.22
2023-04-20T00:08:50.126Z,54.17
2023-04-20T00:11:17.956Z,54.24
2023-04-20T00:13:46.138Z,54.08
2023-04-20T00:16:14.122Z,54.20
2023-04-20T00:18:42.292Z,54.07
2023-04-20T00:21:10.162Z,54.09
2023-04-20T00:23:38.139Z,54.10
2023-04-20T00:26:06.010Z,54.18
2023-04-20T00:28:33.937Z,54.10
2023-04-20T00:31:01.900Z,54.17
2023-04-20T00:33:30.134Z,54.12
2023-04-20T00:35:58.101Z,54.13
2023-04-20T00:38:26.247Z,54.10
2023-04-20T00:40:57.022Z,54.04
2023-04-20T00:43:24.905Z,54.00
2023-04-20T00:45:52.923Z,54.06
2023-04-20T00:48:21.172Z,54.14
2023-04-20T00:50:50.445Z,54.07
2023-04-20T00:53:18.834Z,54.13
2023-04-20T00:55:47.068Z,54.13
2023-04-20T00:58:14.996Z,54.02
2023-04-20T01:00:42.854Z,54.06
2023-04-20T01:03:11.464Z,54.00
2023-04-20T01:05:39.620Z,54.12
2023-04-20T01:08:07.610Z,54.03
2023-04-20T01:10:36.394Z,54.13
2023-04-20T01:13:08.150Z,54.16
2023-04-20T01:15:36.174Z,54.16
2023-04-20T01:18:06.124Z,54.09
2023-04-20T01:20:34.694Z,54.10
2023-04-20T01:23:02.715Z,54.07
2023-04-20T01:25:31.296Z,54.19
2023-04-20T01:27:59.275Z,54.13
2023-04-20T01:30:27.215Z,54.04
2023-04-20T01:32:55.246Z,54.12
2023-04-20T01:35:24.028Z,54.15
2023-04-20T01:37:52.086Z,54.06
2023-04-20T01:40:19.972Z,54.22
2023-04-20T01:42:47.920Z,54.05
2023-04-20T01:45:16.700Z,54.04
2023-04-20T01:47:44.917Z,54.02
2023-04-20T01:50:13.086Z,54.14
2023-04-20T01:52:40.890Z,54.13
2023-04-20T01:55:10.108Z,54.10
2023-04-20T01:57:38.148Z,53.97
2023-04-20T02:00:06.638Z,54.15
2023-04-20T02:02:42.307Z,54.01
2023-04-20T02:05:10.556Z,53.96
2023-04-20T02:07:38.429Z,54.07
2023-04-20T02:10:07.929Z,53.95
2023-04-20T02:12:36.731Z,53.98
2023-04-20T02:15:06.244Z,54.03
2023-04-20T02:17:34.264Z,54.03
2023-04-20T02:20:02.225Z,54.10
2023-04-20T02:22:30.163Z,54.08
2023-04-20T02:24:58.285Z,53.95
2023-04-20T02:27:26.312Z,54.00
2023-04-20T02:29:54.695Z,54.02
2023-04-20T02:32:22.860Z,53.97
2023-04-20T02:34:51.046Z,54.00
2023-04-20T02:37:19.129Z,54.05
2023-04-20T02:39:47.102Z,54.03
2023-04-20T02:42:14.963Z,53.94
2023-04-20T02:44:43.881Z,53.90
2023-04-20T02:47:12.548Z,53.85
2023-04-20T02:49:41.081Z,53.91
2023-04-20T02:52:09.204Z,53.96
2023-04-20T02:54:37.520Z,54.07
2023-04-20T02:57:05.681Z,53.90
2023-04-20T02:59:33.974Z,53.99
2023-04-20T03:02:06.945Z,53.80
2023-04-20T03:04:35.530Z,53.86
2023-04-20T03:07:09.575Z,53.93
2023-04-20T03:09:38.966Z,53.80
2023-04-20T03:12:36.113Z,54.01
2023-04-20T03:15:36.256Z,53.95
2023-04-20T03:18:15.716Z,53.85
2023-04-20T03:20:43.934Z,53.93
2023-04-20T03:23:12.818Z,53.91
2023-04-20T03:25:40.893Z,53.80
2023-04-20T03:28:28.431Z,53.93
2023-04-20T03:30:56.487Z,53.90
2023-04-20T03:33:24.570Z,53.82
2023-04-20T03:35:52.642Z,53.76
2023-04-20T03:38:21.355Z,53.94
2023-04-20T03:40:49.724Z,54.00
2023-04-20T03:43:17.904Z,53.95
2023-04-20T03:45:46.668Z,53.84
2023-04-20T03:48:15.335Z,54.03
2023-04-20T03:50:43.561Z,53.79
2023-04-20T03:53:11.742Z,53.97
2023-04-20T03:55:40.025Z,53.94
2023-04-20T03:58:09.525Z,53.94
2023-04-20T04:01:09.646Z,54.15
2023-04-20T04:03:40.197Z,54.07
2023-04-20T04:06:10.698Z,54.05
2023-04-20T04:08:38.872Z,53.97
2023-04-20T04:11:07.160Z,54.01
2023-04-20T04:13:35.546Z,54.03
2023-04-20T04:16:06.485Z,54.09
2023-04-20T04:18:35.402Z,54.09
2023-04-20T04:21:08.883Z,54.09
2023-04-20T04:23:39.816Z,54.16
2023-04-20T04:26:29.301Z,54.18
2023-04-20T04:28:58.178Z,54.07
2023-04-20T04:31:27.697Z,54.10
2023-04-20T04:33:58.817Z,54.08
2023-04-20T04:36:32.244Z,54.24
2023-04-20T04:39:00.839Z,54.31
2023-04-20T04:41:29.107Z,54.35
2023-04-20T04:44:06.205Z,54.35
2023-04-20T04:46:36.880Z,54.47
2023-04-20T04:49:05.878Z,54.35
2023-04-20T04:51:34.311Z,54.47
2023-04-20T04:54:02.382Z,54.43
2023-04-20T04:56:30.358Z,54.39
2023-04-20T04:58:58.333Z,54.47
2023-04-20T05:01:26.535Z,54.40
2023-04-20T05:03:54.606Z,54.50
2023-04-20T05:06:22.865Z,54.62
2023-04-20T05:08:50.734Z,54.44
2023-04-20T05:11:18.815Z,54.60
2023-04-20T05:13:48.624Z,54.62
2023-04-20T05:16:16.624Z,54.82
2023-04-20T05:18:44.580Z,54.94
2023-04-20T05:21:12.968Z,54.81
2023-04-20T05:23:40.913Z,54.85
2023-04-20T05:26:08.809Z,55.00
2023-04-20T05:28:36.962Z,55.01
2023-04-20T05:31:05.160Z,55.04
2023-04-20T05:33:32.977Z,55.05
2023-04-20T05:36:01.014Z,54.96
2023-04-20T05:38:29.097Z,55.00
2023-04-20T05:40:57.057Z,55.02
2023-04-20T05:43:25.253Z,55.01
2023-04-20T05:45:53.112Z,55.21
2023-04-20T05:48:21.616Z,55.06
2023-04-20T05:50:49.770Z,55.21
2023-04-20T05:53:17.825Z,55.15
2023-04-20T05:55:45.713Z,55.23
2023-04-20T05:58:14.102Z,55.28
2023-04-20T06:00:42.172Z,55.37
2023-04-20T06:03:10.363Z,55.33
2023-04-20T06:05:38.778Z,55.39
2023-04-20T06:08:06.775Z,55.39
2023-04-20T06:10:34.895Z,55.43
2023-04-20T06:13:02.872Z,55.54
2023-04-20T06:15:30.944Z,55.44
2023-04-20T06:17:59.094Z,55.52
2023-04-20T06:20:27.206Z,55.60
2023-04-20T06:22:55.687Z,55.56
2023-04-20T06:25:23.777Z,55.57
2023-04-20T06:27:52.739Z,55.63
2023-04-20T06:30:21.071Z,55.82
2023-04-20T06:32:49.082Z,55.76
2023-04-20T06:35:17.169Z,55.68
2023-04-20T06:37:45.274Z,55.76
2023-04-20T06:40:14.324Z,55.80
2023-04-20T06:42:44.090Z,55.77
2023-04-20T06:45:12.059Z,55.91
2023-04-20T06:47:40.164Z,55.90
2023-04-20T06:50:10.131Z,55.96
2023-04-20T06:52:41.642Z,55.93
2023-04-20T06:55:10.809Z,56.10
2023-04-20T06:57:39.622Z,56.02
2023-04-20T07:00:09.415Z,55.93
2023-04-20T07:02:44.950Z,55.99
2023-04-20T07:05:14.068Z,55.96
2023-04-20T07:07:42.553Z,56.02
2023-04-20T07:10:11.687Z,55.97
2023-04-20T07:12:42.654Z,55.96
2023-04-20T07:15:11.977Z,56.04
2023-04-20T07:17:40.050Z,56.07
2023-04-20T07:20:09.087Z,55.99
2023-04-20T07:22:40.425Z,55.95
2023-04-20T07:25:09.425Z,56.04
2023-04-20T07:27:38.625Z,55.98
2023-04-20T07:30:07.724Z,56.02
2023-04-20T07:32:36.327Z,55.95
2023-04-20T07:35:04.796Z,55.91
2023-04-20T07:37:33.438Z,55.83
2023-04-20T07:40:02.299Z,55.88
2023-04-20T07:42:32.101Z,55.86
2023-04-20T07:45:00.282Z,55.79
2023-04-20T07:47:28.286Z,55.85
2023-04-20T07:49:57.763Z,55.83
2023-04-20T07:52:26.342Z,55.75
2023-04-20T07:54:56.979Z,55.79
2023-04-20T07:57:25.796Z,55.82
2023-04-20T07:59:53.768Z,55.78
2023-04-20T08:02:21.790Z,55.75
2023-04-20T08:04:50.253Z,55.68
2023-04-20T08:07:19.013Z,55.70
2023-04-20T08:09:47.195Z,55.75
2023-04-20T08:12:15.358Z,55.80
2023-04-20T08:14:43.341Z,55.76
2023-04-20T08:17:11.617Z,55.87
2023-04-20T08:19:40.038Z,55.72
2023-04-20T08:22:12.546Z,55.81
2023-04-20T08:24:40.864Z,55.82
2023-04-20T08:27:09.138Z,55.84
2023-04-20T08:29:38.453Z,55.87
2023-04-20T08:32:09.441Z,55.87
2023-04-20T08:34:37.572Z,55.84
2023-04-20T08:37:06.258Z,55.81
2023-04-20T08:39:34.438Z,55.85
2023-04-20T08:42:03.441Z,55.74
2023-04-20T08:44:31.610Z,55.58
2023-04-20T08:47:00.100Z,55.53
2023-04-20T08:49:32.055Z,55.42
2023-04-20T08:52:00.054Z,55.41
2023-04-20T08:54:28.028Z,55.37
2023-04-20T08:56:56.918Z,55.33
2023-04-20T08:59:24.980Z,55.30
2023-04-20T09:01:52.902Z,55.34
2023-04-20T09:04:25.775Z,55.38
2023-04-20T09:06:55.872Z,55.32
2023-04-20T09:09:25.482Z,55.23
2023-04-20T09:12:00.657Z,55.24
2023-04-20T09:14:28.680Z,55.12
2023-04-20T09:17:02.285Z,55.13
2023-04-20T09:19:30.976Z,54.98
2023-04-20T09:22:00.587Z,55.00
2023-04-20T09:24:32.871Z,54.86
2023-04-20T09:27:03.704Z,54.75
2023-04-20T09:29:32.296Z,54.73
2023-04-20T09:32:00.618Z,54.74
2023-04-20T09:34:28.848Z,54.75
2023-04-20T09:36:57.747Z,54.60
2023-04-20T09:39:27.087Z,54.65
2023-04-20T09:42:01.536Z,54.67
2023-04-20T09:44:29.751Z,54.51
2023-04-20T09:46:58.547Z,54.47
2023-04-20T09:49:26.818Z,54.48
2023-04-20T09:51:54.735Z,54.33
2023-04-20T09:54:23.286Z,54.30
2023-04-20T09:56:52.075Z,54.26
2023-04-20T09:59:21.585Z,54.18
2023-04-20T10:01:49.834Z,54.14
2023-04-20T10:04:18.468Z,54.19
2023-04-20T10:06:54.920Z,54.07
2023-04-20T10:09:24.744Z,54.14
2023-04-20T10:11:54.549Z,54.08
2023-04-20T10:14:25.117Z,54.13
2023-04-20T10:17:00.837Z,54.19
2023-04-20T10:19:45.084Z,54.00
2023-04-20T10:22:14.696Z,53.93
2023-04-20T10:24:42.561Z,53.83
2023-04-20T10:27:20.576Z,53.84
2023-04-20T10:29:48.765Z,53.70
2023-04-20T10:32:27.026Z,53.54
2023-04-20T10:35:05.297Z,53.51
2023-04-20T10:37:33.560Z,53.52
2023-04-20T10:40:02.035Z,53.34
2023-04-20T10:42:30.006Z,53.36
2023-04-20T10:44:58.078Z,53.36
2023-04-20T10:47:34.321Z,53.22
2023-04-20T10:50:07.901Z,53.17
2023-04-20T10:52:37.077Z,53.16
2023-04-20T10:55:07.118Z,53.02
2023-04-20T10:57:36.276Z,53.01
2023-04-20T11:00:20.552Z,52.89
2023-04-20T11:02:50.349Z,52.74
2023-04-20T11:05:19.777Z,52.67
2023-04-20T11:07:57.755Z,52.63
2023-04-20T11:10:37.688Z,52.60
2023-04-20T11:13:05.773Z,52.60
2023-04-20T11:15:34.668Z,52.53
2023-04-20T11:18:09.567Z,52.52
2023-04-20T11:20:38.098Z,52.49
2023-04-20T11:23:06.986Z,52.46
2023-04-20T11:25:34.968Z,52.44
2023-04-20T11:28:09.123Z,52.45
2023-04-20T11:30:41.511Z,52.30
2023-04-20T11:33:10.340Z,52.40
2023-04-20T11:35:39.851Z,52.37
2023-04-20T11:38:08.541Z,52.32
2023-04-20T11:40:36.505Z,52.29
2023-04-20T11:43:04.745Z,52.23
2023-04-20T11:45:36.772Z,52.20
2023-04-20T11:48:05.865Z,52.25
2023-04-20T11:50:34.039Z,52.26
2023-04-20T11:53:02.543Z,52.22
2023-04-20T11:55:30.692Z,52.16
2023-04-20T11:57:58.661Z,52.20
2023-04-20T12:00:26.545Z,52.21
2023-04-20T12:02:54.904Z,52.30
2023-04-20T12:05:23.066Z,52.45
2023-04-20T12:07:51.163Z,52.51
2023-04-20T12:10:19.472Z,52.41
2023-04-20T12:12:47.301Z,52.39
2023-04-20T12:15:15.225Z,52.28
2023-04-20T12:17:43.415Z,52.28
2023-04-20T12:20:12.527Z,52.22
2023-04-20T12:22:41.171Z,51.99
2023-04-20T12:25:09.347Z,51.93
2023-04-20T12:27:37.730Z,51.89
2023-04-20T12:30:06.090Z,51.84
2023-04-20T12:32:33.957Z,51.86
2023-04-20T12:35:01.964Z,51.82
2023-04-20T12:37:29.853Z,51.79
2023-04-20T12:39:57.921Z,51.77
2023-04-20T12:42:25.990Z,51.74
2023-04-20T12:44:54.513Z,51.68
2023-04-20T12:47:22.450Z,51.60
2023-04-20T12:49:50.316Z,51.65
2023-04-20T12:52:18.291Z,51.64
2023-04-20T12:54:46.690Z,51.60
2023-04-20T12:57:14.761Z,51.49
2023-04-20T12:59:43.150Z,51.47
2023-04-20T13:02:11.381Z,51.49
2023-04-20T13:04:39.757Z,51.41
2023-04-20T13:07:07.773Z,51.45
2023-04-20T13:09:35.623Z,51.42
2023-04-20T13:12:04.038Z,51.40
2023-04-20T13:14:32.410Z,51.34
2023-04-20T13:17:02.167Z,51.28
2023-04-20T13:19:30.416Z,51.33
2023-04-20T13:21:58.377Z,51.24
2023-04-20T13:24:26.246Z,51.32
2023-04-20T13:26:58.550Z,51.15
2023-04-20T13:29:26.509Z,51.23
2023-04-20T13:31:54.411Z,51.17
2023-04-20T13:34:22.779Z,51.08
2023-04-20T13:36:51.247Z,51.09
2023-04-20T13:39:20.651Z,51.08
2023-04-20T13:41:51.711Z,51.12
2023-04-20T13:44:20.363Z,51.05
2023-04-20T13:46:48.561Z,51.01
2023-04-20T13:49:17.153Z,50.93
2023-04-20T13:51:44.980Z,50.96
2023-04-20T13:54:12.811Z,50.95
2023-04-20T13:56:40.758Z,50.95
2023-04-20T13:59:08.895Z,50.91
2023-04-20T14:01:37.237Z,50.91
2023-04-20T14:04:05.474Z,50.82
2023-04-20T14:06:33.581Z,50.85
2023-04-20T14:09:01.570Z,50.90
2023-04-20T14:11:29.637Z,50.91
2023-04-20T14:13:57.524Z,50.85
2023-04-20T14:16:29.044Z,50.82
2023-04-20T14:18:57.449Z,50.93
2023-04-20T14:21:25.284Z,50.81
2023-04-20T14:23:54.838Z,50.76
2023-04-20T14:26:22.744Z,50.79
2023-04-20T14:28:52.716Z,50.77
2023-04-20T14:31:20.757Z,50.74
2023-04-20T14:33:48.779Z,50.77
2023-04-20T14:36:16.847Z,50.76
2023-04-20T14:38:45.023Z,50.76
2023-04-20T14:41:13.112Z,50.72
2023-04-20T14:43:41.397Z,50.79
2023-04-20T14:46:09.374Z,50.81
2023-04-20T14:48:38.360Z,50.75
2023-04-20T14:51:06.452Z,50.78
2023-04-20T14:53:34.272Z,50.84
2023-04-20T14:56:02.283Z,50.80
2023-04-20T14:58:30.359Z,50.81
2023-04-20T15:00:58.328Z,50.83
2023-04-20T15:03:26.490Z,50.79
2023-04-20T15:05:59.512Z,50.78
2023-04-20T15:08:27.954Z,50.86
2023-04-20T15:10:58.924Z,50.79
2023-04-20T15:13:27.056Z,50.80
2023-04-20T15:15:55.572Z,50.84
2023-04-20T15:18:23.870Z,50.88
2023-04-20T15:20:55.138Z,50.95
2023-04-20T15:23:23.397Z,50.94
2023-04-20T15:25:52.416Z,50.99
2023-04-20T15:28:20.325Z,50.89
2023-04-20T15:30:48.218Z,50.83
2023-04-20T15:33:16.131Z,50.72
2023-04-20T15:35:44.198Z,50.66
2023-04-20T15:38:12.172Z,50.52
2023-04-20T15:40:40.163Z,50.44
2023-04-20T15:43:08.206Z,50.44
2023-04-20T15:45:36.625Z,50.41
2023-04-20T15:48:04.674Z,50.31
2023-04-20T15:50:32.697Z,50.31
2023-04-20T15:53:00.973Z,50.24
2023-04-20T15:55:34.576Z,50.12
2023-04-20T15:58:02.577Z,50.09
2023-04-20T16:00:31.500Z,50.00
2023-04-20T16:03:01.848Z,49.99
2023-04-20T16:05:30.004Z,49.91
2023-04-20T16:07:58.016Z,49.82
2023-04-20T16:10:27.693Z,49.67
2023-04-20T16:12:56.364Z,49.62
2023-04-20T16:15:24.797Z,49.44
2023-04-20T16:17:53.343Z,49.46
2023-04-20T16:20:21.565Z,49.41
2023-04-20T16:22:49.505Z,49.37
2023-04-20T16:25:22.852Z,49.17
2023-04-20T16:27:51.807Z,49.18
2023-04-20T16:30:19.956Z,49.07
2023-04-20T16:32:47.893Z,49.03
2023-04-20T16:35:15.833Z,49.02
2023-04-20T16:37:44.077Z,48.92
2023-04-20T16:40:12.054Z,48.84
2023-04-20T16:42:39.898Z,48.73
2023-04-20T16:45:08.153Z,48.63
2023-04-20T16:47:36.082Z,48.69
2023-04-20T16:50:07.257Z,48.62
2023-04-20T16:52:35.584Z,48.66
2023-04-20T16:55:03.617Z,48.58
2023-04-20T16:57:32.307Z,48.56
2023-04-20T17:00:00.611Z,48.42
2023-04-20T17:02:32.941Z,48.45
2023-04-20T17:05:01.265Z,48.43
2023-04-20T17:07:29.539Z,48.45
2023-04-20T17:09:57.840Z,48.51
2023-04-20T17:12:26.116Z,48.45
2023-04-20T17:14:54.844Z,48.49
2023-04-20T17:17:23.180Z,48.44
2023-04-20T17:19:51.036Z,48.54
2023-04-20T17:22:18.986Z,48.57
2023-04-20T17:24:46.988Z,48.62
2023-04-20T17:27:16.186Z,48.63
2023-04-20T17:29:45.878Z,48.56
2023-04-20T17:32:14.191Z,48.59
2023-04-20T17:34:45.170Z,48.79
2023-04-20T17:37:13.149Z,48.86
2023-04-20T17:39:41.123Z,48.94
2023-04-20T17:42:10.158Z,49.00
2023-04-20T17:44:39.477Z,49.03
2023-04-20T17:47:09.415Z,48.96
2023-04-20T17:49:37.506Z,48.94
2023-04-20T17:52:05.484Z,48.92
2023-04-20T17:54:34.069Z,48.90
2023-04-20T17:57:01.921Z,48.87
2023-04-20T17:59:31.055Z,48.93
2023-04-20T18:01:59.743Z,48.84
2023-04-20T18:04:27.946Z,48.85
2023-04-20T18:06:56.976Z,48.86
2023-04-20T18:09:24.894Z,48.73
2023-04-20T18:11:53.151Z,48.79
2023-04-20T18:14:21.455Z,48.79
2023-04-20T18:16:54.803Z,48.76
2023-04-20T18:19:22.871Z,48.78
2023-04-20T18:21:53.506Z,48.82
2023-04-20T18:24:21.903Z,48.76
2023-04-20T18:26:49.851Z,48.68
2023-04-20T18:29:17.827Z,48.70
2023-04-20T18:31:46.681Z,48.65
2023-04-20T18:34:15.165Z,48.80
2023-04-20T18:36:43.006Z,48.73
2023-04-20T18:39:11.404Z,48.72
2023-04-20T18:41:39.218Z,48.68
2023-04-20T18:44:07.469Z,48.68
2023-04-20T18:46:35.495Z,48.54
2023-04-20T18:49:03.445Z,48.60
2023-04-20T18:51:33.154Z,48.55
2023-04-20T18:54:01.265Z,48.54
2023-04-20T18:56:29.258Z,48.61
2023-04-20T18:58:59.638Z,48.54
2023-04-20T19:01:27.670Z,48.63
2023-04-20T19:03:55.983Z,48.51
2023-04-20T19:06:24.070Z,48.59
2023-04-20T19:08:51.948Z,48.60
2023-04-20T19:11:19.951Z,48.56
2023-04-20T19:13:47.989Z,48.54
2023-04-20T19:16:16.091Z,48.55
2023-04-20T19:18:44.317Z,48.59
2023-04-20T19:21:12.886Z,48.56
2023-04-20T19:23:40.716Z,48.63
2023-04-20T19:26:08.612Z,48.57
2023-04-20T19:28:36.792Z,48.44
2023-04-20T19:31:05.788Z,48.50
2023-04-20T19:33:33.762Z,48.57
2023-04-20T19:36:03.607Z,48.56
2023-04-20T19:38:34.725Z,48.52
2023-04-20T19:41:02.819Z,48.56
2023-04-20T19:43:32.099Z,48.55
2023-04-20T19:46:00.239Z,48.55
2023-04-20T19:48:28.353Z,48.56
2023-04-20T19:50:57.764Z,48.64
2023-04-20T19:53:26.150Z,48.66
2023-04-20T19:55:54.062Z,48.67
2023-04-20T19:58:22.069Z,48.83
2023-04-20T20:00:49.915Z,48.85
2023-04-20T20:03:17.959Z,48.91
2023-04-20T20:05:46.130Z,48.94
2023-04-20T20:08:14.503Z,49.02
2023-04-20T20:10:42.581Z,49.02
2023-04-20T20:13:10.549Z,48.98
2023-04-20T20:15:38.548Z,49.09
2023-04-20T20:18:06.853Z,49.12
2023-04-20T20:20:34.976Z,49.14
2023-04-20T20:23:03.047Z,49.28
2023-04-20T20:25:30.913Z,49.26
2023-04-20T20:27:59.420Z,49.27
2023-04-20T20:30:27.331Z,49.34
2023-04-20T20:32:55.522Z,49.35
2023-04-20T20:35:23.986Z,49.39
2023-04-20T20:37:54.480Z,49.39
2023-04-20T20:40:22.472Z,49.47
2023-04-20T20:42:50.638Z,49.50
2023-04-20T20:45:18.624Z,49.50
2023-04-20T20:47:46.543Z,49.60
2023-04-20T20:50:15.696Z,49.64
2023-04-20T20:52:43.807Z,49.61
2023-04-20T20:55:11.742Z,49.66
2023-04-20T20:57:40.125Z,49.83
2023-04-20T21:00:10.033Z,49.76
2023-04-20T21:02:38.420Z,49.85
2023-04-20T21:05:06.813Z,49.93
2023-04-20T21:07:34.682Z,49.94
2023-04-20T21:10:02.963Z,49.92
2023-04-20T21:12:30.973Z,50.13
2023-04-20T21:14:58.905Z,50.06
2023-04-20T21:17:27.139Z,50.12
2023-04-20T21:19:55.188Z,50.11
2023-04-20T21:22:23.439Z,50.12
2023-04-20T21:24:51.425Z,50.29
2023-04-20T21:27:19.587Z,50.34
2023-04-20T21:29:47.514Z,50.29
2023-04-20T21:32:15.827Z,50.32
2023-04-20T21:34:43.703Z,50.35
2023-04-20T21:37:11.688Z,50.33
2023-04-20T21:39:39.579Z,50.31
2023-04-20T21:42:07.765Z,50.40
2023-04-20T21:44:36.133Z,50.47
2023-04-20T21:47:04.037Z,50.46
2023-04-20T21:49:31.980Z,50.50
2023-04-20T21:51:59.882Z,50.49
2023-04-20T21:54:28.026Z,50.56
2023-04-20T21:56:55.998Z,50.64
2023-04-20T21:59:24.082Z,50.66
2023-04-20T22:01:52.049Z,50.68
2023-04-20T22:04:20.509Z,50.80
2023-04-20T22:06:49.017Z,50.76
2023-04-20T22:09:18.199Z,50.84
2023-04-20T22:11:46.603Z,50.83
2023-04-20T22:14:14.452Z,50.87
2023-04-20T22:16:42.545Z,50.92
2023-04-20T22:19:10.394Z,51.00
2023-04-20T22:21:38.527Z,50.97
2023-04-20T22:24:06.883Z,50.97
2023-04-20T22:26:34.965Z,50.97
2023-04-20T22:29:03.056Z,50.94
2023-04-20T22:31:31.201Z,50.99
2023-04-20T22:33:59.187Z,50.94
2023-04-20T22:36:28.297Z,50.88
2023-04-20T22:38:56.436Z,50.94
2023-04-20T22:41:24.338Z,50.91
2023-04-20T22:43:52.139Z,50.83
2023-04-20T22:46:20.026Z,50.98
2023-04-20T22:48:49.210Z,50.99
2023-04-20T22:51:17.399Z,50.96
2023-04-20T22:53:45.340Z,51.02
2023-04-20T22:56:13.769Z,51.05
2023-04-20T22:58:41.676Z,51.08
2023-04-20T23:01:09.611Z,51.09
2023-04-20T23:03:37.827Z,51.07
2023-04-20T23:06:07.464Z,51.04
2023-04-20T23:08:35.444Z,51.00
2023-04-20T23:11:04.836Z,51.07
2023-04-20T23:13:33.328Z,51.15
2023-04-20T23:16:01.360Z,51.12
2023-04-20T23:18:29.782Z,51.18
2023-04-20T23:20:57.758Z,51.24
2023-04-20T23:23:25.747Z,51.05
2023-04-20T23:25:53.713Z,51.15
2023-04-20T23:28:21.680Z,51.20
2023-04-20T23:30:49.873Z,51.21
2023-04-20T23:33:17.938Z,51.28
2023-04-20T23:35:45.816Z,51.17
2023-04-20T23:38:14.398Z,51.22
2023-04-20T23:40:42.475Z,51.27
2023-04-20T23:43:10.660Z,51.22
2023-04-20T23:45:38.638Z,51.18
2023-04-20T23:48:06.865Z,51.20
2023-04-20T23:50:37.074Z,51.18
2023-04-20T23:53:06.071Z,51.23
2023-04-20T23:55:34.548Z,51.18
2023-04-20T23:58:02.486Z,51.16
